createdAt,value
2023-11-16T00:01:15.184Z,2.20
2023-11-16T00:03:44.239Z,2.09
2023-11-16T00:06:11.758Z,2.04
2023-11-16T00:08:38.332Z,1.82
2023-11-16T00:11:05.167Z,2.15
2023-11-16T00:13:31.612Z,1.97
2023-11-16T00:15:58.196Z,2.05
2023-11-16T00:18:24.742Z,1.90
2023-11-16T00:20:51.318Z,1.89
2023-11-16T00:23:17.832Z,1.86
2023-11-16T00:25:44.550Z,1.97
2023-11-16T00:28:12.428Z,1.89
2023-11-16T00:30:38.918Z,1.87
2023-11-16T00:33:05.850Z,2.05
2023-11-16T00:35:33.044Z,2.05
2023-11-16T00:37:59.624Z,2.08
2023-11-16T00:40:26.228Z,1.77
2023-11-16T00:42:52.842Z,1.88
2023-11-16T00:45:21.193Z,2.13
2023-11-16T00:47:48.367Z,2.01
2023-11-16T00:50:15.178Z,2.10
2023-11-16T00:52:41.664Z,1.96
2023-11-16T00:55:09.367Z,1.86
2023-11-16T00:57:35.910Z,2.13
2023-11-16T01:00:04.597Z,2.02
2023-11-16T01:02:31.410Z,2.01
2023-11-16T01:04:58.854Z,2.10
2023-11-16T01:07:25.441Z,2.03
2023-11-16T01:09:52.017Z,2.21
2023-11-16T01:12:18.884Z,1.98
2023-11-16T01:14:46.340Z,2.04
2023-11-16T01:17:19.940Z,2.05
2023-11-16T01:19:48.385Z,1.93
2023-11-16T01:22:17.770Z,1.84
2023-11-16T01:24:46.337Z,1.94
2023-11-16T01:27:19.350Z,1.97
2023-11-16T01:29:46.947Z,2.21
2023-11-16T01:32:14.613Z,1.98
2023-11-16T01:34:43.688Z,1.81
2023-11-16T01:37:12.460Z,1.97
2023-11-16T01:39:40.413Z,1.96
2023-11-16T01:42:10.469Z,1.77
2023-11-16T01:44:37.985Z,1.98
2023-11-16T01:47:09.333Z,2.11
2023-11-16T01:49:36.861Z,1.95
2023-11-16T01:52:05.484Z,2.08
2023-11-16T01:54:36.394Z,2.17
2023-11-16T01:57:05.365Z,2.24
2023-11-16T01:59:35.493Z,2.31
2023-11-16T02:02:06.587Z,2.07
2023-11-16T02:04:35.611Z,2.36
2023-11-16T02:07:06.366Z,2.50
2023-11-16T02:09:32.998Z,2.03
2023-11-16T02:11:59.550Z,2.26
2023-11-16T02:14:26.094Z,2.05
2023-11-16T02:16:55.107Z,2.19
2023-11-16T02:19:31.902Z,1.86
2023-11-16T02:22:02.169Z,2.03
2023-11-16T02:24:29.257Z,1.97
2023-11-16T02:26:56.082Z,2.04
2023-11-16T02:29:22.736Z,1.91
2023-11-16T02:31:49.278Z,1.89
2023-11-16T02:34:16.151Z,1.92
2023-11-16T02:36:42.815Z,1.93
2023-11-16T02:39:09.592Z,1.88
2023-11-16T02:41:37.524Z,1.88
2023-11-16T02:44:05.146Z,2.18
2023-11-16T02:46:32.456Z,2.02
2023-11-16T02:48:58.977Z,1.98
2023-11-16T02:51:25.555Z,1.90
2023-11-16T02:53:52.966Z,2.11
2023-11-16T02:56:20.247Z,1.97
2023-11-16T02:58:46.791Z,1.93
2023-11-16T03:01:14.324Z,1.93
2023-11-16T03:03:41.724Z,2.28
2023-11-16T03:06:09.803Z,1.90
2023-11-16T03:08:37.075Z,1.95
2023-11-16T03:11:04.243Z,1.95
2023-11-16T03:13:31.061Z,1.95
2023-11-16T03:15:57.918Z,2.06
2023-11-16T03:18:25.186Z,1.87
2023-11-16T03:20:51.727Z,1.94
2023-11-16T03:23:18.345Z,2.10
2023-11-16T03:25:44.945Z,2.09
2023-11-16T03:28:11.550Z,1.84
2023-11-16T03:30:39.362Z,1.92
2023-11-16T03:33:09.719Z,2.06
2023-11-16T03:35:36.537Z,2.00
2023-11-16T03:38:03.878Z,2.03
2023-11-16T03:40:31.433Z,2.12
2023-11-16T03:42:58.457Z,2.21
2023-11-16T03:45:25.185Z,2.09
2023-11-16T03:47:52.029Z,2.04
2023-11-16T03:50:18.754Z,2.01
2023-11-16T03:52:46.197Z,2.29
2023-11-16T03:55:13.924Z,2.23
2023-11-16T03:57:40.964Z,2.29
2023-11-16T04:00:09.360Z,2.13
2023-11-16T04:02:37.037Z,2.14
2023-11-16T04:05:06.418Z,2.20
2023-11-16T04:07:35.470Z,2.30
2023-11-16T04:10:05.285Z,2.26
2023-11-16T04:12:32.057Z,1.94
2023-11-16T04:14:58.575Z,2.17
2023-11-16T04:17:25.195Z,2.12
2023-11-16T04:19:52.896Z,2.24
2023-11-16T04:22:23.043Z,2.09
2023-11-16T04:24:53.891Z,1.87
2023-11-16T04:27:21.697Z,2.05
2023-11-16T04:29:48.767Z,2.04
2023-11-16T04:32:15.903Z,1.84
2023-11-16T04:34:43.286Z,1.95
2023-11-16T04:37:11.680Z,2.07
2023-11-16T04:39:38.408Z,1.82
2023-11-16T04:42:05.439Z,1.85
2023-11-16T04:44:35.448Z,2.19
2023-11-16T04:47:03.291Z,2.29
2023-11-16T04:49:29.846Z,3.66
2023-11-16T04:51:58.567Z,5.56
2023-11-16T04:54:27.543Z,3.26
2023-11-16T04:56:54.067Z,2.18
2023-11-16T04:59:20.809Z,2.21
2023-11-16T05:01:47.423Z,2.17
2023-11-16T05:04:14.089Z,2.17
2023-11-16T05:06:42.158Z,2.13
2023-11-16T05:09:09.665Z,2.73
2023-11-16T05:11:36.699Z,2.23
2023-11-16T05:14:05.041Z,1.88
2023-11-16T05:16:31.605Z,2.49
2023-11-16T05:18:58.138Z,2.51
2023-11-16T05:21:24.771Z,1.99
2023-11-16T05:23:51.280Z,1.63
2023-11-16T05:26:17.948Z,1.91
2023-11-16T05:28:44.680Z,1.79
2023-11-16T05:31:12.327Z,1.98
2023-11-16T05:33:39.386Z,1.85
2023-11-16T05:36:07.284Z,1.87
2023-11-16T05:38:34.027Z,1.85
2023-11-16T05:41:01.389Z,1.85
2023-11-16T05:43:28.834Z,2.44
2023-11-16T05:45:55.397Z,2.67
2023-11-16T05:48:22.102Z,2.03
2023-11-16T05:50:49.130Z,2.51
2023-11-16T05:53:15.646Z,2.07
2023-11-16T05:55:43.545Z,2.15
2023-11-16T05:58:10.608Z,1.87
2023-11-16T06:00:38.583Z,1.98
2023-11-16T06:03:06.675Z,1.94
2023-11-16T06:05:34.971Z,1.75
2023-11-16T06:08:01.988Z,2.06
2023-11-16T06:10:28.898Z,2.53
2023-11-16T06:12:58.832Z,3.12
2023-11-16T06:15:26.547Z,3.41
2023-11-16T06:17:56.390Z,3.86
2023-11-16T06:20:23.347Z,3.25
2023-11-16T06:22:51.874Z,3.05
2023-11-16T06:25:19.288Z,2.82
2023-11-16T06:27:47.952Z,3.89
2023-11-16T06:30:15.622Z,3.27
2023-11-16T06:32:43.868Z,3.13
2023-11-16T06:35:11.822Z,3.09
2023-11-16T06:37:38.974Z,3.09
2023-11-16T06:40:10.138Z,3.10
2023-11-16T06:42:38.008Z,3.21
2023-11-16T06:45:06.653Z,3.25
2023-11-16T06:47:35.133Z,3.33
2023-11-16T06:50:05.595Z,3.64
2023-11-16T06:52:33.834Z,3.08
2023-11-16T06:55:01.438Z,2.95
2023-11-16T06:57:28.312Z,2.68
2023-11-16T06:59:55.307Z,3.84
2023-11-16T07:02:23.569Z,4.37
2023-11-16T07:04:51.047Z,4.62
2023-11-16T07:07:18.553Z,5.70
2023-11-16T07:09:48.227Z,5.65
2023-11-16T07:12:16.835Z,13.52
2023-11-16T07:14:51.167Z,37.72
2023-11-16T07:17:20.675Z,20.80
2023-11-16T07:19:48.953Z,10.58
2023-11-16T07:22:15.600Z,6.95
2023-11-16T07:24:45.453Z,10.07
2023-11-16T07:27:13.193Z,8.19
2023-11-16T07:29:43.956Z,10.94
2023-11-16T07:32:10.597Z,9.42
2023-11-16T07:34:42.803Z,5.22
2023-11-16T07:37:09.901Z,5.30
2023-11-16T07:39:38.463Z,4.57
2023-11-16T07:42:06.010Z,8.81
2023-11-16T07:44:33.336Z,15.73
2023-11-16T07:47:00.084Z,12.43
2023-11-16T07:49:26.721Z,7.75
2023-11-16T07:51:55.224Z,7.81
2023-11-16T07:54:22.834Z,6.54
2023-11-16T07:57:02.454Z,6.39
2023-11-16T07:59:35.838Z,6.46
2023-11-16T08:02:03.014Z,6.30
2023-11-16T08:04:32.852Z,5.70
2023-11-16T08:07:01.194Z,6.08
2023-11-16T08:09:30.261Z,7.52
2023-11-16T08:11:57.340Z,7.72
2023-11-16T08:14:26.438Z,15.01
2023-11-16T08:16:58.161Z,8.30
2023-11-16T08:19:27.474Z,5.67
2023-11-16T08:21:57.337Z,7.03
2023-11-16T08:24:25.140Z,6.58
2023-11-16T08:26:52.330Z,8.37
2023-11-16T08:29:19.359Z,7.77
2023-11-16T08:31:53.982Z,5.93
2023-11-16T08:34:21.847Z,4.71
2023-11-16T08:36:48.534Z,4.13
2023-11-16T08:39:15.648Z,4.47
2023-11-16T08:41:44.354Z,7.86
2023-11-16T08:44:11.458Z,11.30
2023-11-16T08:46:43.127Z,53.84
2023-11-16T08:49:11.232Z,36.21
2023-11-16T08:51:40.309Z,17.12
2023-11-16T08:54:09.879Z,66.21
2023-11-16T08:56:41.764Z,75.28
2023-11-16T08:59:10.818Z,28.66
2023-11-16T09:01:39.465Z,45.12
2023-11-16T09:04:07.401Z,280.09
2023-11-16T09:06:34.156Z,76.93
2023-11-16T09:09:10.297Z,90.42
2023-11-16T09:11:37.397Z,60.93
2023-11-16T09:14:05.244Z,22.37
2023-11-16T09:16:32.806Z,24.51
2023-11-16T09:18:59.741Z,32.74
2023-11-16T09:21:27.537Z,16.20
2023-11-16T09:23:55.589Z,13.14
2023-11-16T09:26:24.946Z,14.16
2023-11-16T09:29:01.077Z,7.93
2023-11-16T09:31:34.188Z,4.06
2023-11-16T09:34:01.656Z,5.10
2023-11-16T09:36:28.407Z,5.14
2023-11-16T09:38:58.211Z,4.82
2023-11-16T09:41:26.628Z,4.59
2023-11-16T09:44:03.099Z,3.97
2023-11-16T09:46:32.986Z,4.05
2023-11-16T09:49:06.846Z,4.46
2023-11-16T09:51:38.100Z,3.96
2023-11-16T09:54:09.495Z,4.57
2023-11-16T09:56:42.521Z,7.72
2023-11-16T09:59:15.400Z,9.27
2023-11-16T10:01:47.563Z,6.45
2023-11-16T10:04:15.909Z,10.43
2023-11-16T10:06:49.515Z,6.72
2023-11-16T10:09:16.493Z,4.06
2023-11-16T10:11:43.340Z,4.57
2023-11-16T10:14:10.723Z,5.49
2023-11-16T10:16:38.106Z,7.85
2023-11-16T10:19:07.864Z,6.52
2023-11-16T10:21:35.795Z,7.59
2023-11-16T10:24:11.115Z,8.00
2023-11-16T10:26:38.609Z,8.97
2023-11-16T10:29:06.261Z,4.34
2023-11-16T10:31:34.174Z,5.13
2023-11-16T10:34:00.937Z,4.94
2023-11-16T10:36:28.863Z,4.75
2023-11-16T10:38:59.072Z,4.97
2023-11-16T10:41:26.087Z,4.97
2023-11-16T10:43:57.666Z,55.95
2023-11-16T10:46:28.746Z,10.87
2023-11-16T10:48:55.972Z,115.49
2023-11-16T10:51:23.552Z,118.21
2023-11-16T10:53:58.526Z,120.17
2023-11-16T10:56:26.507Z,184.49
2023-11-16T10:58:54.317Z,117.27
2023-11-16T11:01:23.157Z,185.53
2023-11-16T11:03:51.422Z,126.65
2023-11-16T11:06:23.866Z,111.12
2023-11-16T11:08:54.122Z,23.72
2023-11-16T11:11:28.765Z,13.98
2023-11-16T11:13:58.911Z,15.36
2023-11-16T11:16:29.582Z,8.88
2023-11-16T11:18:58.293Z,5.47
2023-11-16T11:21:28.059Z,6.23
2023-11-16T11:24:01.528Z,4.42
2023-11-16T11:26:40.730Z,5.77
2023-11-16T11:29:09.462Z,3.93
2023-11-16T11:31:54.417Z,3.77
2023-11-16T11:34:30.257Z,3.95
2023-11-16T11:36:57.777Z,3.80
2023-11-16T11:39:35.433Z,4.05
2023-11-16T11:42:02.938Z,3.85
2023-11-16T11:44:29.565Z,4.37
2023-11-16T11:46:57.627Z,4.04
2023-11-16T11:49:26.348Z,3.95
2023-11-16T11:51:54.705Z,4.29
2023-11-16T11:54:33.713Z,4.08
2023-11-16T11:57:00.431Z,4.04
2023-11-16T11:59:26.899Z,3.84
2023-11-16T12:01:53.530Z,12.53
2023-11-16T12:04:21.853Z,4.64
2023-11-16T12:06:48.857Z,3.84
2023-11-16T12:09:15.566Z,3.54
2023-11-16T12:11:43.082Z,3.61
2023-11-16T12:14:11.995Z,3.84
2023-11-16T12:16:38.857Z,3.59
2023-11-16T12:19:09.923Z,4.04
2023-11-16T12:21:40.781Z,4.22
2023-11-16T12:24:09.955Z,4.79
2023-11-16T12:26:37.024Z,4.66
2023-11-16T12:29:17.229Z,4.45
2023-11-16T12:31:45.070Z,4.92
2023-11-16T12:34:13.244Z,4.20
2023-11-16T12:36:45.773Z,3.99
2023-11-16T12:39:14.737Z,4.76
2023-11-16T12:41:50.644Z,4.08
2023-11-16T12:44:17.803Z,4.18
2023-11-16T12:46:44.402Z,3.99
2023-11-16T12:49:12.132Z,4.02
2023-11-16T12:51:38.794Z,4.00
2023-11-16T12:54:06.797Z,4.01
2023-11-16T12:56:33.908Z,4.26
2023-11-16T12:59:00.450Z,4.09
2023-11-16T13:01:27.055Z,4.07
2023-11-16T13:03:53.883Z,4.06
2023-11-16T13:06:20.950Z,3.46
2023-11-16T13:08:49.139Z,4.12
2023-11-16T13:11:16.205Z,4.15
2023-11-16T13:13:42.801Z,5.90
2023-11-16T13:16:10.782Z,5.17
2023-11-16T13:18:37.741Z,5.34
2023-11-16T13:21:10.656Z,4.84
2023-11-16T13:23:41.298Z,5.15
2023-11-16T13:26:07.942Z,4.93
2023-11-16T13:28:34.841Z,4.63
2023-11-16T13:31:02.400Z,4.53
2023-11-16T13:33:29.820Z,4.28
2023-11-16T13:35:56.575Z,4.07
2023-11-16T13:38:23.616Z,3.67
2023-11-16T13:40:50.609Z,3.90
2023-11-16T13:43:18.806Z,3.83
2023-11-16T13:45:46.361Z,4.19
2023-11-16T13:48:13.863Z,4.26
2023-11-16T13:50:42.684Z,4.31
2023-11-16T13:53:10.922Z,4.72
2023-11-16T13:55:37.474Z,4.64
2023-11-16T13:58:04.813Z,4.64
2023-11-16T14:00:33.120Z,4.92
2023-11-16T14:03:00.021Z,4.52
2023-11-16T14:05:26.682Z,4.65
2023-11-16T14:07:54.592Z,5.43
2023-11-16T14:10:24.805Z,6.05
2023-11-16T14:12:54.039Z,4.74
2023-11-16T14:15:21.465Z,4.26
2023-11-16T14:17:48.588Z,4.54
2023-11-16T14:20:15.291Z,5.21
2023-11-16T14:22:41.899Z,5.11
2023-11-16T14:25:09.245Z,5.11
2023-11-16T14:27:37.317Z,5.04
2023-11-16T14:30:05.910Z,5.05
2023-11-16T14:32:32.844Z,4.85
2023-11-16T14:35:13.879Z,5.01
2023-11-16T14:37:47.097Z,5.12
2023-11-16T14:40:14.452Z,4.67
2023-11-16T14:42:41.204Z,5.07
2023-11-16T14:45:09.696Z,4.95
2023-11-16T14:47:39.909Z,4.68
2023-11-16T14:50:10.759Z,4.90
2023-11-16T14:52:38.380Z,4.58
2023-11-16T14:55:08.253Z,4.71
2023-11-16T14:57:37.651Z,4.55
2023-11-16T15:00:06.840Z,4.74
2023-11-16T15:02:33.526Z,4.63
2023-11-16T15:05:07.574Z,4.48
2023-11-16T15:07:39.197Z,4.45
2023-11-16T15:10:10.987Z,4.95
2023-11-16T15:12:38.216Z,4.52
2023-11-16T15:15:06.055Z,4.34
2023-11-16T15:17:32.627Z,4.31
2023-11-16T15:20:05.541Z,4.59
2023-11-16T15:22:43.434Z,4.35
2023-11-16T15:25:09.964Z,4.53
2023-11-16T15:27:36.502Z,4.59
2023-11-16T15:30:05.414Z,4.33
2023-11-16T15:32:32.961Z,4.79
2023-11-16T15:34:59.636Z,4.73
2023-11-16T15:37:26.783Z,4.84
2023-11-16T15:39:58.053Z,4.62
2023-11-16T15:42:28.333Z,4.49
2023-11-16T15:44:56.328Z,4.98
2023-11-16T15:47:24.812Z,5.06
2023-11-16T15:49:51.611Z,5.11
2023-11-16T15:52:18.230Z,4.83
2023-11-16T15:54:47.367Z,4.87
2023-11-16T15:57:14.223Z,4.96
2023-11-16T16:02:10.128Z,4.94
2023-11-16T16:04:37.121Z,5.25
2023-11-16T16:07:06.180Z,5.40
2023-11-16T16:09:32.771Z,4.94
2023-11-16T16:11:59.316Z,4.93
2023-11-16T16:14:25.985Z,5.20
2023-11-16T16:16:54.156Z,5.11
2023-11-16T16:19:20.777Z,5.26
2023-11-16T16:21:48.348Z,5.07
2023-11-16T16:24:15.900Z,4.93
2023-11-16T16:26:42.689Z,5.32
2023-11-16T16:29:09.288Z,5.53
2023-11-16T16:31:35.952Z,5.83
2023-11-16T16:34:03.306Z,5.60
2023-11-16T16:36:30.019Z,6.10
2023-11-16T16:38:56.819Z,6.15
2023-11-16T16:41:24.700Z,6.23
2023-11-16T16:43:51.537Z,6.60
2023-11-16T16:46:19.900Z,7.07
2023-11-16T16:48:46.662Z,6.53
2023-11-16T16:51:13.508Z,6.26
2023-11-16T16:53:40.368Z,6.52
2023-11-16T16:56:07.521Z,6.62
2023-11-16T16:58:34.613Z,6.26
2023-11-16T17:01:01.198Z,5.78
2023-11-16T17:03:27.835Z,6.11
2023-11-16T17:05:54.350Z,6.31
2023-11-16T17:08:21.025Z,6.38
2023-11-16T17:10:47.632Z,6.54
2023-11-16T17:13:14.279Z,6.52
2023-11-16T17:15:41.125Z,6.51
2023-11-16T17:18:08.235Z,6.57
2023-11-16T17:20:35.131Z,6.43
2023-11-16T17:23:02.662Z,6.92
2023-11-16T17:25:29.243Z,7.89
2023-11-16T17:27:55.988Z,7.66
2023-11-16T17:30:22.551Z,7.48
2023-11-16T17:32:49.096Z,7.07
2023-11-16T17:35:17.265Z,7.44
2023-11-16T17:37:44.646Z,7.36
2023-11-16T17:40:15.167Z,7.34
2023-11-16T17:42:44.503Z,7.85
2023-11-16T17:45:11.483Z,7.69
2023-11-16T17:47:38.102Z,7.68
2023-11-16T17:50:05.952Z,8.00
2023-11-16T17:52:32.584Z,7.70
2023-11-16T17:54:59.359Z,7.85
2023-11-16T17:57:25.900Z,7.34
2023-11-16T17:59:53.079Z,7.83
2023-11-16T18:02:19.750Z,7.73
2023-11-16T18:04:48.141Z,7.81
2023-11-16T18:07:15.271Z,7.78
2023-11-16T18:09:42.127Z,8.11
2023-11-16T18:12:15.283Z,8.15
2023-11-16T18:14:42.795Z,8.70
2023-11-16T18:17:09.901Z,10.39
2023-11-16T18:19:38.532Z,10.93
2023-11-16T18:22:08.124Z,10.35
2023-11-16T18:24:35.137Z,11.35
2023-11-16T18:27:01.948Z,10.78
2023-11-16T18:29:28.926Z,11.65
2023-11-16T18:31:55.588Z,10.64
2023-11-16T18:34:38.100Z,11.11
2023-11-16T18:37:04.761Z,12.21
2023-11-16T18:39:33.833Z,11.47
2023-11-16T18:42:01.478Z,11.80
2023-11-16T18:44:28.075Z,12.74
2023-11-16T18:46:56.733Z,12.46
2023-11-16T18:49:23.355Z,12.20
2023-11-16T18:51:53.482Z,12.97
2023-11-16T18:54:20.098Z,12.47
2023-11-16T18:56:49.820Z,11.33
2023-11-16T18:59:17.694Z,11.62
2023-11-16T19:01:45.045Z,11.88
2023-11-16T19:04:12.800Z,12.15
2023-11-16T19:06:39.676Z,11.54
2023-11-16T19:09:09.982Z,11.43
2023-11-16T19:11:36.902Z,11.74
2023-11-16T19:14:07.981Z,11.44
2023-11-16T19:16:36.603Z,12.37
2023-11-16T19:19:03.476Z,13.23
2023-11-16T19:21:30.183Z,12.14
2023-11-16T19:23:57.800Z,12.14
2023-11-16T19:26:24.902Z,12.38
2023-11-16T19:28:51.594Z,12.15
2023-11-16T19:31:18.581Z,12.49
2023-11-16T19:33:46.867Z,20.91
2023-11-16T19:36:15.362Z,11.75
2023-11-16T19:38:41.980Z,13.03
2023-11-16T19:41:09.743Z,13.50
2023-11-16T19:43:36.377Z,16.41
2023-11-16T19:46:04.773Z,23.97
2023-11-16T19:48:32.261Z,20.52
2023-11-16T19:50:59.059Z,19.04
2023-11-16T19:53:26.332Z,16.87
2023-11-16T19:55:54.499Z,14.07
2023-11-16T19:58:21.307Z,13.10
2023-11-16T20:00:48.154Z,13.08
2023-11-16T20:03:15.084Z,13.07
2023-11-16T20:05:42.408Z,14.68
2023-11-16T20:08:09.148Z,13.14
2023-11-16T20:10:39.603Z,21.61
2023-11-16T20:13:08.967Z,35.75
2023-11-16T20:15:36.505Z,31.47
2023-11-16T20:18:03.488Z,24.36
2023-11-16T20:20:30.248Z,27.65
2023-11-16T20:22:57.056Z,24.59
2023-11-16T20:25:23.885Z,21.77
2023-11-16T20:27:51.647Z,21.99
2023-11-16T20:30:19.257Z,17.76
2023-11-16T20:32:52.028Z,12.35
2023-11-16T20:35:19.519Z,12.91
2023-11-16T20:37:47.938Z,10.91
2023-11-16T20:40:19.142Z,15.78
2023-11-16T20:42:49.696Z,25.70
2023-11-16T20:45:18.127Z,31.46
2023-11-16T20:47:47.818Z,27.76
2023-11-16T20:50:16.126Z,30.39
2023-11-16T20:52:43.953Z,24.92
2023-11-16T20:55:11.987Z,19.86
2023-11-16T20:57:40.123Z,17.91
2023-11-16T21:00:10.298Z,18.79
2023-11-16T21:02:40.913Z,19.65
2023-11-16T21:05:08.442Z,19.26
2023-11-16T21:07:36.237Z,15.29
2023-11-16T21:10:04.267Z,16.02
2023-11-16T21:12:32.304Z,15.06
2023-11-16T21:14:59.572Z,12.31
2023-11-16T21:17:28.301Z,12.55
2023-11-16T21:19:55.138Z,11.48
2023-11-16T21:22:21.861Z,12.10
2023-11-16T21:24:48.433Z,12.71
2023-11-16T21:27:14.985Z,13.60
2023-11-16T21:29:43.531Z,13.64
2023-11-16T21:32:11.375Z,13.05
2023-11-16T21:34:41.608Z,13.08
2023-11-16T21:37:09.809Z,12.26
2023-11-16T21:39:38.066Z,12.60
2023-11-16T21:42:06.024Z,12.75
2023-11-16T21:44:32.770Z,11.60
2023-11-16T21:47:00.876Z,11.49
2023-11-16T21:49:29.065Z,11.35
2023-11-16T21:51:57.731Z,11.73
2023-11-16T21:54:25.130Z,12.35
2023-11-16T21:56:53.431Z,11.16
2023-11-16T21:59:20.030Z,11.85
2023-11-16T22:01:48.859Z,12.31
2023-11-16T22:04:17.537Z,17.26
2023-11-16T22:06:44.657Z,16.04
2023-11-16T22:09:13.564Z,16.48
2023-11-16T22:11:40.512Z,12.29
2023-11-16T22:14:09.237Z,11.41
2023-11-16T22:16:36.497Z,11.32
2023-11-16T22:19:05.012Z,10.57
2023-11-16T22:21:34.522Z,10.54
2023-11-16T22:24:01.929Z,10.10
2023-11-16T22:26:30.092Z,9.86
2023-11-16T22:28:57.252Z,9.57
2023-11-16T22:31:23.878Z,9.33
2023-11-16T22:33:52.050Z,9.38
2023-11-16T22:36:18.805Z,9.02
2023-11-16T22:38:45.827Z,9.42
2023-11-16T22:41:13.167Z,9.45
2023-11-16T22:43:40.863Z,9.11
2023-11-16T22:46:08.301Z,8.91
2023-11-16T22:48:35.940Z,8.85
2023-11-16T22:51:02.738Z,8.12
2023-11-16T22:53:29.565Z,8.81
2023-11-16T22:55:56.162Z,8.48
2023-11-16T22:58:22.704Z,8.71
2023-11-16T23:00:50.646Z,8.79
2023-11-16T23:03:18.235Z,9.26
2023-11-16T23:05:46.452Z,8.66
2023-11-16T23:08:15.326Z,8.17
2023-11-16T23:10:42.164Z,7.84
2023-11-16T23:13:13.466Z,8.07
2023-11-16T23:15:40.948Z,9.60
2023-11-16T23:18:09.697Z,8.31
2023-11-16T23:20:37.248Z,7.86
2023-11-16T23:23:06.114Z,7.60
2023-11-16T23:25:36.546Z,7.92
2023-11-16T23:28:03.591Z,7.31
2023-11-16T23:30:30.518Z,7.38
2023-11-16T23:32:57.990Z,7.52
2023-11-16T23:35:24.808Z,8.27
2023-11-16T23:37:51.742Z,7.74
2023-11-16T23:40:19.911Z,7.56
2023-11-16T23:42:47.765Z,7.08
2023-11-16T23:45:16.181Z,7.34
2023-11-16T23:47:43.430Z,7.85
2023-11-16T23:50:11.154Z,8.22
2023-11-16T23:52:38.706Z,8.21
2023-11-16T23:55:09.778Z,8.54
2023-11-16T23:57:38.405Z,8.78
